Arrey, NM

8:32 AM MDT on September 16, 2014 (GMT -0600)
Truth Or Consequences Municipal | Change Station
CLOSE
Current Station
Airport
Location: Truth Or Consequences,
Elevation: 4859 ft
Nearby Weather Stations
Active Advisory: Flash Flood Watch

Elev 4859 ft 33.24 °N, 107.27 °W | Updated 39 minutes ago

Rain
Rain
63 °F
Feels Like 63 °F
N
5
Wind Variable Wind from North

Today
High -- | Low -- °F
--% Chance of Precip.
Yesterday
High -- | Low -- °F
Precip. -- in
6:54 AM 7:14 PM
Last Quarter, 45% visible
Pressure 30.06 in
Visibility 10.0 miles
Clouds Overcast 10000 ft
Dew Point 62 °F
Humidity 97%
Rainfall 0.08 in
Snow Depth 0 in , 0 in , 1 in
UV 0 out of 12
Pollen 2.00 out of 12
Air Quality Not available.
Flu Activity Not available.
METAR KTCS 161353Z AUTO 36004KT 10SM -RA OVC100 17/17 A3027 RMK AO2 SLP177 P0004 T01720167 TSNO

More Conditions Fewer Conditions

Pressure 30.06 in
Visibility 10.0 miles
Clouds Overcast 10000 ft
Dew Point 62 °F
Humidity 97%
Rainfall 0.08 in
Snow Depth 0 in , 0 in , 1 in
UV 0 out of 12
Pollen 2.00 out of 12
Air Quality Not available.
Flu Activity Not available.
METAR KTCS 161353Z AUTO 36004KT 10SM -RA OVC100 17/17 A3027 RMK AO2 SLP177 P0004 T01720167 TSNO

More Conditions Fewer Conditions

Nowcast | as of 5:21 am MDT on September 16, 2014

Moisture from Tropical Storm Odile continues to stream up across the area this morning and radar is showing light rain becoming more widespread across much of this area. An area of heavier rain extends from El Paso up to Las Cruces and northward to Hatch. Radar estimated rainfall rates in this area are running about .25 to .50 inches per hour. Expect rain to become gradually heavier throughout today.

×

10-Day Weather Forecast

Almanac

Astronomy

Sep. 16, 2014 Rise Set
Actual Time 6:54 AM MDT 7:14 PM MDT
Civil Twilight 6:29 AM MDT 7:39 PM MDT
Nautical Twilight 6:00 AM MDT 8:07 PM MDT
Astronomical Twilight 5:31 AM MDT 8:37 PM MDT
Moon 12:20 AM MDT 2:26 PM MDT
Length of Visible Light 13h 09m
Length of Day
12h 20m
Tomorrow will be 2m 0s shorter.
Last Quarter, 45% of the Moon is Illuminated
Today
Last Quarter
Sep 24
New
Oct 1
First Quarter
Oct 8
Full
Oct 15
Last Quarter

Today's Extremes

State Highs State Lows

Community

WunderPhotos

Upload Photos

1,753,789 photos uploaded!

Nearby

Snow Depth

Station Depth Elevation
Tolby 0 in 10180 ft
Lookout Mountain 0 in 8500 ft
North Costilla 1 in 10600 ft
Silver Creek Divide 1 in 9000 ft
Sierra Blanca 0 in 10280 ft

Earthquake Activity

City Distance Mag. Time & Date
No recent earthquake activity has been reported nearby.
Minimum magnitude displayed is 2.5.

Coastal Water Temperatures

Place Temperature
No Stations Reporting

Nearby Weather Stations